createdAt,value
2022-10-24T00:00:35.354Z,51.91
2022-10-24T00:03:28.234Z,51.99
2022-10-24T00:06:00.440Z,52.29
2022-10-24T00:08:32.676Z,52.12
2022-10-24T00:11:09.655Z,52.24
2022-10-24T00:13:42.767Z,52.42
2022-10-24T00:16:15.916Z,52.23
2022-10-24T00:18:48.607Z,52.52
2022-10-24T00:21:21.411Z,52.43
2022-10-24T00:23:53.552Z,52.38
2022-10-24T00:26:25.787Z,52.44
2022-10-24T00:28:58.113Z,52.45
2022-10-24T00:31:30.745Z,52.34
2022-10-24T00:34:03.436Z,52.39
2022-10-24T00:36:35.919Z,52.51
2022-10-24T00:39:08.182Z,52.60
2022-10-24T00:41:43.988Z,52.65
2022-10-24T00:44:19.948Z,52.61
2022-10-24T00:46:56.420Z,52.71
2022-10-24T00:49:33.549Z,52.79
2022-10-24T00:52:09.341Z,52.71
2022-10-24T00:54:40.845Z,52.71
2022-10-24T00:57:20.600Z,52.66
2022-10-24T00:59:56.638Z,52.60
2022-10-24T01:02:29.215Z,52.69
2022-10-24T01:05:01.647Z,52.56
2022-10-24T01:07:48.008Z,52.81
2022-10-24T01:13:21.032Z,53.03
2022-10-24T01:15:57.689Z,53.03
2022-10-24T01:18:34.077Z,53.30
2022-10-24T01:21:25.138Z,53.28
2022-10-24T01:24:23.519Z,53.22
2022-10-24T01:27:27.716Z,53.27
2022-10-24T01:30:09.041Z,53.32
2022-10-24T01:32:47.892Z,53.28
2022-10-24T01:35:27.904Z,53.30
2022-10-24T01:38:10.649Z,53.28
2022-10-24T01:40:51.855Z,53.33
2022-10-24T01:43:28.331Z,53.42
2022-10-24T01:46:06.082Z,53.64
2022-10-24T01:48:42.566Z,53.52
2022-10-24T01:51:17.194Z,53.59
2022-10-24T01:53:51.650Z,53.55
2022-10-24T01:56:25.427Z,53.61
2022-10-24T01:59:07.698Z,53.58
2022-10-24T02:01:40.766Z,53.66
2022-10-24T02:04:14.631Z,53.82
2022-10-24T02:06:48.933Z,53.83
2022-10-24T02:09:22.550Z,53.71
2022-10-24T02:11:58.608Z,53.92
2022-10-24T02:14:34.896Z,54.01
2022-10-24T02:17:07.651Z,54.07
2022-10-24T02:19:40.397Z,54.27
2022-10-24T02:22:18.603Z,54.31
2022-10-24T02:24:55.217Z,54.40
2022-10-24T02:27:31.377Z,54.46
2022-10-24T02:30:06.916Z,54.64
2022-10-24T02:32:41.833Z,54.50
2022-10-24T02:35:16.979Z,54.66
2022-10-24T02:37:53.468Z,54.77
2022-10-24T02:40:26.531Z,54.81
2022-10-24T02:42:59.848Z,54.98
2022-10-24T02:45:33.643Z,54.82
2022-10-24T02:48:11.356Z,54.93
2022-10-24T02:50:45.490Z,55.02
2022-10-24T02:53:20.599Z,54.93
2022-10-24T02:55:52.770Z,54.90
2022-10-24T02:58:25.181Z,54.87
2022-10-24T03:00:57.451Z,55.01
2022-10-24T03:03:29.701Z,55.03
2022-10-24T03:06:01.854Z,55.11
2022-10-24T03:08:34.067Z,55.19
2022-10-24T03:11:06.701Z,55.16
2022-10-24T03:13:38.889Z,55.09
2022-10-24T03:16:13.922Z,55.14
2022-10-24T03:18:46.587Z,55.30
2022-10-24T03:21:18.660Z,55.15
2022-10-24T03:23:51.102Z,55.25
2022-10-24T03:26:23.271Z,55.26
2022-10-24T03:28:55.406Z,55.28
2022-10-24T03:31:27.946Z,55.32
2022-10-24T03:34:00.484Z,55.39
2022-10-24T03:36:32.677Z,55.44
2022-10-24T03:39:04.936Z,55.56
2022-10-24T03:41:37.092Z,55.60
2022-10-24T03:44:09.372Z,55.57
2022-10-24T03:46:41.569Z,55.59
2022-10-24T03:49:13.816Z,55.50
2022-10-24T03:51:45.944Z,55.54
2022-10-24T03:54:18.539Z,55.59
2022-10-24T03:56:50.643Z,55.52
2022-10-24T03:59:22.834Z,55.57
2022-10-24T04:01:55.324Z,55.53
2022-10-24T04:04:27.518Z,55.56
2022-10-24T04:07:00.445Z,55.60
2022-10-24T04:09:32.605Z,55.52
2022-10-24T04:12:04.940Z,55.59
2022-10-24T04:14:37.219Z,55.56
2022-10-24T04:17:09.677Z,55.60
2022-10-24T04:19:41.996Z,55.69
2022-10-24T04:22:14.219Z,55.71
2022-10-24T04:24:46.723Z,55.67
2022-10-24T04:27:19.626Z,55.66
2022-10-24T04:29:51.957Z,55.71
2022-10-24T04:32:24.169Z,55.62
2022-10-24T04:34:56.293Z,55.70
2022-10-24T04:37:28.568Z,55.77
2022-10-24T04:40:00.697Z,55.84
2022-10-24T04:42:33.199Z,55.86
2022-10-24T04:45:05.671Z,55.94
2022-10-24T04:47:38.123Z,56.01
2022-10-24T04:50:11.676Z,55.84
2022-10-24T04:52:44.012Z,55.89
2022-10-24T04:55:16.412Z,55.93
2022-10-24T04:57:48.613Z,55.92
2022-10-24T05:00:21.527Z,55.99
2022-10-24T05:02:56.705Z,56.07
2022-10-24T05:05:31.338Z,56.03
2022-10-24T05:08:03.423Z,56.06
2022-10-24T05:10:35.577Z,56.10
2022-10-24T05:13:07.717Z,56.20
2022-10-24T05:15:40.141Z,56.19
2022-10-24T05:18:12.983Z,56.31
2022-10-24T05:20:45.247Z,56.26
2022-10-24T05:23:17.527Z,56.40
2022-10-24T05:25:49.921Z,56.38
2022-10-24T05:28:22.194Z,56.34
2022-10-24T05:30:54.546Z,56.32
2022-10-24T05:33:26.827Z,56.62
2022-10-24T05:35:59.033Z,56.34
2022-10-24T05:38:31.196Z,56.13
2022-10-24T05:41:03.362Z,55.99
2022-10-24T05:43:35.538Z,55.54
2022-10-24T05:46:10.232Z,55.13
2022-10-24T05:48:42.446Z,55.03
2022-10-24T05:51:14.576Z,54.94
2022-10-24T05:53:46.805Z,54.81
2022-10-24T05:56:18.967Z,54.76
2022-10-24T05:58:51.124Z,54.75
2022-10-24T06:01:23.271Z,54.67
2022-10-24T06:03:55.565Z,54.59
2022-10-24T06:06:27.985Z,54.57
2022-10-24T06:09:00.093Z,54.70
2022-10-24T06:11:32.433Z,54.77
2022-10-24T06:14:08.769Z,54.76
2022-10-24T06:16:51.264Z,54.66
2022-10-24T06:19:23.368Z,54.62
2022-10-24T06:21:55.651Z,54.45
2022-10-24T06:24:27.952Z,54.11
2022-10-24T06:27:00.223Z,53.69
2022-10-24T06:29:32.731Z,53.31
2022-10-24T06:32:05.604Z,53.03
2022-10-24T06:34:37.905Z,52.80
2022-10-24T06:37:10.168Z,52.33
2022-10-24T06:39:42.312Z,52.21
2022-10-24T06:42:14.491Z,52.01
2022-10-24T06:44:46.738Z,51.58
2022-10-24T06:47:19.137Z,51.32
2022-10-24T06:49:51.267Z,51.03
2022-10-24T06:52:23.480Z,50.79
2022-10-24T06:54:56.052Z,50.72
2022-10-24T06:57:28.171Z,50.21
2022-10-24T07:00:00.295Z,49.84
2022-10-24T07:02:32.660Z,49.72
2022-10-24T07:05:05.120Z,49.67
2022-10-24T07:07:37.263Z,49.29
2022-10-24T07:10:13.226Z,49.07
2022-10-24T07:12:46.015Z,49.00
2022-10-24T07:15:18.560Z,48.72
2022-10-24T07:17:50.688Z,48.51
2022-10-24T07:20:22.902Z,48.24
2022-10-24T07:22:55.105Z,48.51
2022-10-24T07:25:27.266Z,48.28
2022-10-24T07:27:59.369Z,48.08
2022-10-24T07:30:31.582Z,47.79
2022-10-24T07:33:03.777Z,47.95
2022-10-24T07:35:36.273Z,47.59
2022-10-24T07:38:08.381Z,47.42
2022-10-24T07:40:40.556Z,47.62
2022-10-24T07:43:13.238Z,47.33
2022-10-24T07:45:49.103Z,47.18
2022-10-24T07:48:24.380Z,46.97
2022-10-24T07:50:56.512Z,46.67
2022-10-24T07:53:28.800Z,46.59
2022-10-24T07:56:01.398Z,46.37
2022-10-24T07:58:33.588Z,46.37
2022-10-24T08:01:08.600Z,46.01
2022-10-24T08:03:40.848Z,45.67
2022-10-24T08:06:15.666Z,45.49
2022-10-24T08:08:48.385Z,45.36
2022-10-24T08:11:23.588Z,45.15
2022-10-24T08:13:57.289Z,44.84
2022-10-24T08:16:30.169Z,44.56
2022-10-24T08:19:02.459Z,44.38
2022-10-24T08:21:36.385Z,44.33
2022-10-24T08:24:09.400Z,43.90
2022-10-24T08:26:41.598Z,43.98
2022-10-24T08:29:15.132Z,43.73
2022-10-24T08:31:47.261Z,43.50
2022-10-24T08:34:19.863Z,43.25
2022-10-24T08:36:52.420Z,43.12
2022-10-24T08:39:24.528Z,43.00
2022-10-24T08:42:00.509Z,42.79
2022-10-24T08:44:35.734Z,42.08
2022-10-24T08:47:14.850Z,41.96
2022-10-24T08:49:51.398Z,42.13
2022-10-24T08:52:29.861Z,41.92
2022-10-24T08:55:07.276Z,41.87
2022-10-24T08:57:44.779Z,41.52
2022-10-24T09:00:22.513Z,41.46
2022-10-24T09:03:03.330Z,41.22
2022-10-24T09:05:42.496Z,41.12
2022-10-24T09:08:25.799Z,41.01
2022-10-24T09:11:01.365Z,40.70
2022-10-24T09:13:35.276Z,40.64
2022-10-24T09:16:08.165Z,40.43
2022-10-24T09:18:43.308Z,40.38
2022-10-24T09:21:18.241Z,40.45
2022-10-24T09:23:52.050Z,40.66
2022-10-24T09:26:30.145Z,40.03
2022-10-24T09:29:02.415Z,40.03
2022-10-24T09:31:34.652Z,40.10
2022-10-24T09:34:06.845Z,39.78
2022-10-24T09:36:40.783Z,39.99
2022-10-24T09:39:30.031Z,39.74
2022-10-24T09:42:03.332Z,39.59
2022-10-24T09:44:38.552Z,39.54
2022-10-24T09:47:25.996Z,39.67
2022-10-24T09:49:58.569Z,39.57
2022-10-24T09:52:33.017Z,39.38
2022-10-24T09:55:17.774Z,39.36
2022-10-24T09:57:54.040Z,39.09
2022-10-24T10:00:29.769Z,39.05
2022-10-24T10:03:05.455Z,38.77
2022-10-24T10:05:49.582Z,38.85
2022-10-24T10:08:25.111Z,38.59
2022-10-24T10:11:07.525Z,38.70
2022-10-24T10:13:50.588Z,38.46
2022-10-24T10:16:28.045Z,38.39
2022-10-24T10:19:07.964Z,38.56
2022-10-24T10:21:58.068Z,37.90
2022-10-24T10:24:40.818Z,37.83
2022-10-24T10:27:32.345Z,37.90
2022-10-24T10:30:20.905Z,37.79
2022-10-24T10:33:07.133Z,37.63
2022-10-24T10:35:47.491Z,37.76
2022-10-24T10:38:38.011Z,37.54
2022-10-24T10:41:19.697Z,37.42
2022-10-24T10:44:03.021Z,37.52
2022-10-24T10:46:45.553Z,37.30
2022-10-24T10:49:25.592Z,37.01
2022-10-24T10:52:03.895Z,37.13
2022-10-24T10:55:01.411Z,36.90
2022-10-24T10:57:41.821Z,36.68
2022-10-24T11:00:18.224Z,36.59
2022-10-24T11:03:03.901Z,36.66
2022-10-24T11:05:54.263Z,36.39
2022-10-24T11:08:49.439Z,36.47
2022-10-24T11:11:26.231Z,36.29
2022-10-24T11:14:03.544Z,36.11
2022-10-24T11:16:37.145Z,36.18
2022-10-24T11:19:27.200Z,35.86
2022-10-24T11:22:01.859Z,36.24
2022-10-24T11:24:40.249Z,36.17
2022-10-24T11:27:17.669Z,36.35
2022-10-24T11:29:56.588Z,36.12
2022-10-24T11:32:33.856Z,36.04
2022-10-24T11:35:16.009Z,35.97
2022-10-24T11:37:51.939Z,36.17
2022-10-24T11:43:16.137Z,35.97
2022-10-24T11:45:53.605Z,36.08
2022-10-24T11:48:31.717Z,36.03
2022-10-24T11:51:10.029Z,36.09
2022-10-24T11:53:54.800Z,36.15
2022-10-24T11:56:34.247Z,36.14
2022-10-24T11:59:10.672Z,36.01
2022-10-24T12:02:03.676Z,36.06
2022-10-24T12:04:57.460Z,36.27
2022-10-24T12:08:08.495Z,36.13
2022-10-24T12:11:14.097Z,36.03
2022-10-24T12:16:52.692Z,36.05
2022-10-24T12:19:26.489Z,35.86
2022-10-24T12:22:02.045Z,36.07
2022-10-24T12:24:34.675Z,36.14
2022-10-24T12:27:20.925Z,36.09
2022-10-24T12:30:15.867Z,36.08
2022-10-24T12:32:51.213Z,36.09
2022-10-24T12:35:47.144Z,36.15
2022-10-24T12:38:42.646Z,36.19
2022-10-24T12:41:46.565Z,36.09
2022-10-24T12:44:41.287Z,35.89
2022-10-24T12:47:35.940Z,35.91
2022-10-24T12:50:42.471Z,35.88
2022-10-24T12:53:31.884Z,35.98
2022-10-24T12:59:04.763Z,35.82
2022-10-24T13:01:38.354Z,35.91
2022-10-24T13:04:47.275Z,35.88
2022-10-24T13:07:51.844Z,35.96
2022-10-24T13:10:35.789Z,35.99
2022-10-24T13:13:30.476Z,35.94
2022-10-24T13:16:08.706Z,36.10
2022-10-24T13:18:54.161Z,36.18
2022-10-24T13:21:32.277Z,36.15
2022-10-24T13:24:30.819Z,36.23
2022-10-24T13:27:27.196Z,36.36
2022-10-24T13:30:20.113Z,36.31
2022-10-24T13:32:52.317Z,36.39
2022-10-24T13:35:27.552Z,36.35
2022-10-24T13:38:04.747Z,36.41
2022-10-24T13:40:43.156Z,36.44
2022-10-24T13:43:19.892Z,36.40
2022-10-24T13:46:04.287Z,36.36
2022-10-24T13:48:41.309Z,36.46
2022-10-24T13:51:22.949Z,36.47
2022-10-24T13:53:57.634Z,36.48
2022-10-24T13:56:33.128Z,36.55
2022-10-24T13:59:07.772Z,36.55
2022-10-24T14:01:41.745Z,36.56
2022-10-24T14:04:13.884Z,36.64
2022-10-24T14:06:47.223Z,36.68
2022-10-24T14:09:19.492Z,36.73
2022-10-24T14:11:52.240Z,36.94
2022-10-24T14:14:30.724Z,36.75
2022-10-24T14:17:24.003Z,36.72
2022-10-24T14:19:59.713Z,36.80
2022-10-24T14:22:37.117Z,36.78
2022-10-24T14:25:24.195Z,36.81
2022-10-24T14:27:59.528Z,36.88
2022-10-24T14:30:35.109Z,36.94
2022-10-24T14:33:22.400Z,37.06
2022-10-24T14:35:57.922Z,37.16
2022-10-24T14:38:31.688Z,37.18
2022-10-24T14:41:09.565Z,37.36
2022-10-24T14:43:45.014Z,37.48
2022-10-24T14:46:38.895Z,37.45
2022-10-24T14:49:33.990Z,37.56
2022-10-24T14:52:13.325Z,37.51
2022-10-24T14:54:53.595Z,37.47
2022-10-24T14:57:26.918Z,37.54
2022-10-24T15:00:02.822Z,37.72
2022-10-24T15:02:41.969Z,37.66
2022-10-24T15:05:34.190Z,37.75
2022-10-24T15:08:26.920Z,38.01
2022-10-24T15:11:15.353Z,37.98
2022-10-24T15:14:05.628Z,38.14
2022-10-24T15:16:42.264Z,38.14
2022-10-24T15:19:19.472Z,38.27
2022-10-24T15:21:52.153Z,38.37
2022-10-24T15:24:27.204Z,38.43
2022-10-24T15:27:14.247Z,38.53
2022-10-24T15:29:46.652Z,38.74
2022-10-24T15:32:18.813Z,38.86
2022-10-24T15:34:54.256Z,39.00
2022-10-24T15:37:28.718Z,39.05
2022-10-24T15:40:06.233Z,38.93
2022-10-24T15:42:38.520Z,39.19
2022-10-24T15:45:16.377Z,39.14
2022-10-24T15:47:48.543Z,39.32
2022-10-24T15:53:02.688Z,39.54
2022-10-24T15:55:35.040Z,39.56
2022-10-24T15:58:11.542Z,39.68
2022-10-24T16:00:43.891Z,39.67
2022-10-24T16:03:23.837Z,39.61
2022-10-24T16:05:58.380Z,39.87
2022-10-24T16:08:30.549Z,40.18
2022-10-24T16:11:06.184Z,40.14
2022-10-24T16:13:42.291Z,40.42
2022-10-24T16:16:14.481Z,40.39
2022-10-24T16:18:49.968Z,40.41
2022-10-24T16:21:23.876Z,40.49
2022-10-24T16:23:56.060Z,40.67
2022-10-24T16:26:28.400Z,41.00
2022-10-24T16:29:00.723Z,40.86
2022-10-24T16:31:33.429Z,41.16
2022-10-24T16:34:07.497Z,41.14
2022-10-24T16:36:41.078Z,41.25
2022-10-24T16:39:14.632Z,41.48
2022-10-24T16:41:46.912Z,41.59
2022-10-24T16:44:19.560Z,41.69
2022-10-24T16:46:53.431Z,41.84
2022-10-24T16:49:25.883Z,41.82
2022-10-24T16:52:00.277Z,42.17
2022-10-24T16:54:32.664Z,42.27
2022-10-24T16:57:04.884Z,42.25
2022-10-24T16:59:37.225Z,42.41
2022-10-24T17:02:10.282Z,42.47
2022-10-24T17:04:44.751Z,42.60
2022-10-24T17:07:18.513Z,42.70
2022-10-24T17:09:52.070Z,42.87
2022-10-24T17:12:24.201Z,42.94
2022-10-24T17:14:56.565Z,43.09
2022-10-24T17:17:28.950Z,43.14
2022-10-24T17:20:01.136Z,43.28
2022-10-24T17:25:18.847Z,43.45
2022-10-24T17:27:52.285Z,43.63
2022-10-24T17:30:26.886Z,43.42
2022-10-24T17:33:00.592Z,43.67
2022-10-24T17:35:33.712Z,43.71
2022-10-24T17:38:13.422Z,43.98
2022-10-24T17:40:47.964Z,43.84
2022-10-24T17:43:24.262Z,44.09
2022-10-24T17:45:58.451Z,44.15
2022-10-24T17:48:31.080Z,44.02
2022-10-24T17:51:03.211Z,44.35
2022-10-24T17:53:35.360Z,44.25
2022-10-24T17:56:08.387Z,44.41
2022-10-24T17:58:40.539Z,44.32
2022-10-24T18:01:15.367Z,44.58
2022-10-24T18:03:47.578Z,44.59
2022-10-24T18:06:19.956Z,44.70
2022-10-24T18:08:55.911Z,44.86
2022-10-24T18:11:28.054Z,44.81
2022-10-24T18:14:00.191Z,44.78
2022-10-24T18:16:32.392Z,44.82
2022-10-24T18:19:04.929Z,44.93
2022-10-24T18:21:37.199Z,44.94
2022-10-24T18:24:10.613Z,45.04
2022-10-24T18:26:42.785Z,44.97
2022-10-24T18:29:14.941Z,45.07
2022-10-24T18:31:47.133Z,44.94
2022-10-24T18:34:19.318Z,45.11
2022-10-24T18:36:51.461Z,44.98
2022-10-24T18:39:26.370Z,45.14
2022-10-24T18:42:05.585Z,45.27
2022-10-24T18:44:38.988Z,45.31
2022-10-24T18:47:20.700Z,45.30
2022-10-24T18:49:57.486Z,45.46
2022-10-24T18:52:41.513Z,45.43
2022-10-24T18:55:21.967Z,45.53
2022-10-24T18:57:54.854Z,45.58
2022-10-24T19:00:29.845Z,45.67
2022-10-24T19:03:18.530Z,45.76
2022-10-24T19:05:56.657Z,45.91
2022-10-24T19:08:29.786Z,46.05
2022-10-24T19:11:02.631Z,46.00
2022-10-24T19:13:35.464Z,46.03
2022-10-24T19:16:12.472Z,46.17
2022-10-24T19:18:53.057Z,46.09
2022-10-24T19:21:26.361Z,46.22
2022-10-24T19:23:58.540Z,46.27
2022-10-24T19:26:31.303Z,46.46
2022-10-24T19:29:05.766Z,46.46
2022-10-24T19:31:38.587Z,46.53
2022-10-24T19:34:12.145Z,46.56
2022-10-24T19:36:44.363Z,46.69
2022-10-24T19:39:17.017Z,46.72
2022-10-24T19:41:49.193Z,46.77
2022-10-24T19:44:22.148Z,46.90
2022-10-24T19:46:54.298Z,46.93
2022-10-24T19:49:26.470Z,47.01
2022-10-24T19:51:59.739Z,47.00
2022-10-24T19:54:31.911Z,46.98
2022-10-24T19:57:04.117Z,47.13
2022-10-24T19:59:38.531Z,47.22
2022-10-24T20:02:11.884Z,47.29
2022-10-24T20:04:48.095Z,47.25
2022-10-24T20:07:22.231Z,47.42
2022-10-24T20:09:54.519Z,47.50
2022-10-24T20:12:26.652Z,47.59
2022-10-24T20:14:59.109Z,47.53
2022-10-24T20:17:31.352Z,47.65
2022-10-24T20:20:03.578Z,47.67
2022-10-24T20:22:35.706Z,47.72
2022-10-24T20:25:09.165Z,47.71
2022-10-24T20:27:41.988Z,47.87
2022-10-24T20:30:16.027Z,47.90
2022-10-24T20:32:48.130Z,47.92
2022-10-24T20:35:22.311Z,47.97
2022-10-24T20:37:54.463Z,48.01
2022-10-24T20:40:26.796Z,48.12
2022-10-24T20:42:59.105Z,48.24
2022-10-24T20:45:34.204Z,48.23
2022-10-24T20:48:09.532Z,48.30
2022-10-24T20:50:41.752Z,48.31
2022-10-24T20:53:13.856Z,48.33
2022-10-24T20:55:45.988Z,48.42
2022-10-24T20:58:18.129Z,48.48
2022-10-24T21:00:50.285Z,48.51
2022-10-24T21:03:22.499Z,48.54
2022-10-24T21:05:54.625Z,48.58
2022-10-24T21:08:26.806Z,48.74
2022-10-24T21:10:59.333Z,48.64
2022-10-24T21:13:31.505Z,48.57
2022-10-24T21:16:04.196Z,48.54
2022-10-24T21:18:36.348Z,48.44
2022-10-24T21:21:14.249Z,48.47
2022-10-24T21:23:50.842Z,48.46
2022-10-24T21:26:24.017Z,48.32
2022-10-24T21:29:08.506Z,48.29
2022-10-24T21:31:46.993Z,48.29
2022-10-24T21:34:19.589Z,48.27
2022-10-24T21:36:52.018Z,48.26
2022-10-24T21:39:24.100Z,48.29
2022-10-24T21:41:56.269Z,48.27
2022-10-24T21:44:28.418Z,48.23
2022-10-24T21:47:01.033Z,48.33
2022-10-24T21:49:34.617Z,48.22
2022-10-24T21:52:07.072Z,48.28
2022-10-24T21:54:39.232Z,48.38
2022-10-24T21:57:11.393Z,48.38
2022-10-24T21:59:43.674Z,48.49
2022-10-24T22:02:16.052Z,48.57
2022-10-24T22:04:52.031Z,48.60
2022-10-24T22:10:02.709Z,48.72
2022-10-24T22:12:35.865Z,48.73
2022-10-24T22:15:09.629Z,48.73
2022-10-24T22:17:41.793Z,48.86
2022-10-24T22:20:14.516Z,48.88
2022-10-24T22:22:46.994Z,48.93
2022-10-24T22:25:19.335Z,48.98
2022-10-24T22:27:51.580Z,49.03
2022-10-24T22:30:23.735Z,49.13
2022-10-24T22:32:56.639Z,49.13
2022-10-24T22:35:30.343Z,49.23
2022-10-24T22:38:03.302Z,49.27
2022-10-24T22:40:36.874Z,49.23
2022-10-24T22:43:10.458Z,49.35
2022-10-24T22:45:49.124Z,49.42
2022-10-24T22:48:27.033Z,49.53
2022-10-24T22:51:00.065Z,49.62
2022-10-24T22:53:34.129Z,49.68
2022-10-24T22:56:14.625Z,49.80
2022-10-24T22:58:48.199Z,49.89
2022-10-24T23:01:38.343Z,50.00
2022-10-24T23:04:24.071Z,50.04
2022-10-24T23:07:02.825Z,50.13
2022-10-24T23:09:34.977Z,50.29
2022-10-24T23:12:15.427Z,50.23
2022-10-24T23:14:49.245Z,50.25
2022-10-24T23:17:26.625Z,50.30
2022-10-24T23:20:00.250Z,50.50
2022-10-24T23:22:34.314Z,50.54
2022-10-24T23:25:07.953Z,50.49
2022-10-24T23:27:43.402Z,50.65
2022-10-24T23:30:19.092Z,50.70
2022-10-24T23:32:53.204Z,50.88
2022-10-24T23:35:26.397Z,50.96
2022-10-24T23:37:59.330Z,51.14
2022-10-24T23:40:36.965Z,51.39
2022-10-24T23:43:15.021Z,51.38
2022-10-24T23:45:57.006Z,51.50
2022-10-24T23:48:44.244Z,51.50
2022-10-24T23:51:20.130Z,51.54
2022-10-24T23:53:54.778Z,51.69
2022-10-24T23:56:28.995Z,51.84
2022-10-24T23:59:01.095Z,51.96
